sensor_id;sensor_type;location;lat;lon;timestamp;temperature;humidity
20862;DHT22;10591;52.532;13.348;2022-09-24T00:00:41;12.06;70.84
20862;DHT22;10591;52.532;13.348;2022-09-24T00:03:12;12.04;70.46
20862;DHT22;10591;52.532;13.348;2022-09-24T00:05:43;11.98;70.96
20862;DHT22;10591;52.532;13.348;2022-09-24T00:08:15;11.96;71.76
20862;DHT22;10591;52.532;13.348;2022-09-24T00:10:49;11.97;70.72
20862;DHT22;10591;52.532;13.348;2022-09-24T00:13:19;11.94;71.89
20862;DHT22;10591;52.532;13.348;2022-09-24T00:15:50;11.89;72.12
20862;DHT22;10591;52.532;13.348;2022-09-24T00:18:24;11.90;72.81
20862;DHT22;10591;52.532;13.348;2022-09-24T00:20:53;11.85;72.61
20862;DHT22;10591;52.532;13.348;2022-09-24T00:23:24;11.82;72.71
20862;DHT22;10591;52.532;13.348;2022-09-24T00:25:54;11.80;73.08
20862;DHT22;10591;52.532;13.348;2022-09-24T00:28:42;11.78;72.91
20862;DHT22;10591;52.532;13.348;2022-09-24T00:31:13;11.74;72.96
20862;DHT22;10591;52.532;13.348;2022-09-24T00:33:43;11.74;72.72
20862;DHT22;10591;52.532;13.348;2022-09-24T00:36:14;11.73;72.40
20862;DHT22;10591;52.532;13.348;2022-09-24T00:38:49;11.74;72.83
20862;DHT22;10591;52.532;13.348;2022-09-24T00:41:23;11.73;72.70
20862;DHT22;10591;52.532;13.348;2022-09-24T00:43:54;11.72;73.27
20862;DHT22;10591;52.532;13.348;2022-09-24T00:46:33;11.64;71.99
20862;DHT22;10591;52.532;13.348;2022-09-24T00:49:09;11.68;73.35
20862;DHT22;10591;52.532;13.348;2022-09-24T00:51:37;11.68;73.45
20862;DHT22;10591;52.532;13.348;2022-09-24T00:54:11;11.64;72.57
20862;DHT22;10591;52.532;13.348;2022-09-24T00:56:42;11.62;73.62
20862;DHT22;10591;52.532;13.348;2022-09-24T00:59:16;11.64;73.68
20862;DHT22;10591;52.532;13.348;2022-09-24T01:01:47;11.62;73.98
20862;DHT22;10591;52.532;13.348;2022-09-24T01:04:19;11.60;73.72
20862;DHT22;10591;52.532;13.348;2022-09-24T01:06:51;11.56;72.90
20862;DHT22;10591;52.532;13.348;2022-09-24T01:09:23;11.56;73.74
20862;DHT22;10591;52.532;13.348;2022-09-24T01:12:16;11.59;73.72
20862;DHT22;10591;52.532;13.348;2022-09-24T01:17:28;11.60;73.98
20862;DHT22;10591;52.532;13.348;2022-09-24T01:28:27;11.62;73.77
20862;DHT22;10591;52.532;13.348;2022-09-24T01:30:58;11.68;73.68
20862;DHT22;10591;52.532;13.348;2022-09-24T01:33:30;11.67;74.02
20862;DHT22;10591;52.532;13.348;2022-09-24T01:36:03;11.67;74.83
20862;DHT22;10591;52.532;13.348;2022-09-24T01:38:41;11.70;74.47
20862;DHT22;10591;52.532;13.348;2022-09-24T01:41:14;11.72;74.42
20862;DHT22;10591;52.532;13.348;2022-09-24T01:43:44;11.72;74.16
20862;DHT22;10591;52.532;13.348;2022-09-24T01:46:17;11.76;72.49
20862;DHT22;10591;52.532;13.348;2022-09-24T01:48:49;11.74;72.59
20862;DHT22;10591;52.532;13.348;2022-09-24T01:51:28;11.81;73.19
20862;DHT22;10591;52.532;13.348;2022-09-24T01:54:14;11.78;72.39
20862;DHT22;10591;52.532;13.348;2022-09-24T01:56:42;11.85;72.61
20862;DHT22;10591;52.532;13.348;2022-09-24T01:59:18;11.84;72.56
20862;DHT22;10591;52.532;13.348;2022-09-24T02:02:08;11.88;72.67
20862;DHT22;10591;52.532;13.348;2022-09-24T02:04:43;11.85;72.27
20862;DHT22;10591;52.532;13.348;2022-09-24T02:07:22;11.88;72.36
20862;DHT22;10591;52.532;13.348;2022-09-24T02:09:50;11.88;72.22
20862;DHT22;10591;52.532;13.348;2022-09-24T02:12:28;11.90;72.65
20862;DHT22;10591;52.532;13.348;2022-09-24T02:15:01;11.93;72.79
20862;DHT22;10591;52.532;13.348;2022-09-24T02:17:34;11.87;71.93
20862;DHT22;10591;52.532;13.348;2022-09-24T02:20:14;11.88;72.01
20862;DHT22;10591;52.532;13.348;2022-09-24T02:22:40;11.87;72.35
20862;DHT22;10591;52.532;13.348;2022-09-24T02:25:17;11.88;72.25
20862;DHT22;10591;52.532;13.348;2022-09-24T02:27:46;11.89;72.07
20862;DHT22;10591;52.532;13.348;2022-09-24T02:30:16;11.88;72.25
20862;DHT22;10591;52.532;13.348;2022-09-24T02:32:48;11.94;71.60
20862;DHT22;10591;52.532;13.348;2022-09-24T02:35:18;11.92;71.78
20862;DHT22;10591;52.532;13.348;2022-09-24T02:37:49;11.94;71.65
20862;DHT22;10591;52.532;13.348;2022-09-24T02:40:19;11.91;72.20
20862;DHT22;10591;52.532;13.348;2022-09-24T02:42:50;11.90;72.44
20862;DHT22;10591;52.532;13.348;2022-09-24T02:45:20;11.90;72.31
20862;DHT22;10591;52.532;13.348;2022-09-24T02:47:51;11.94;72.52
20862;DHT22;10591;52.532;13.348;2022-09-24T02:50:22;11.90;72.67
20862;DHT22;10591;52.532;13.348;2022-09-24T02:52:53;11.90;72.52
20862;DHT22;10591;52.532;13.348;2022-09-24T02:55:23;11.94;73.29
20862;DHT22;10591;52.532;13.348;2022-09-24T02:57:54;11.94;73.29
20862;DHT22;10591;52.532;13.348;2022-09-24T03:00:25;11.91;72.83
20862;DHT22;10591;52.532;13.348;2022-09-24T03:02:55;11.86;72.93
20862;DHT22;10591;52.532;13.348;2022-09-24T03:05:25;11.91;73.18
20862;DHT22;10591;52.532;13.348;2022-09-24T03:07:56;11.86;73.38
20862;DHT22;10591;52.532;13.348;2022-09-24T03:10:27;11.88;73.54
20862;DHT22;10591;52.532;13.348;2022-09-24T03:12:58;11.86;73.27
20862;DHT22;10591;52.532;13.348;2022-09-24T03:15:28;11.86;73.17
20862;DHT22;10591;52.532;13.348;2022-09-24T03:17:59;11.82;73.19
20862;DHT22;10591;52.532;13.348;2022-09-24T03:20:29;11.82;73.58
20862;DHT22;10591;52.532;13.348;2022-09-24T03:22:59;11.84;73.71
20862;DHT22;10591;52.532;13.348;2022-09-24T03:25:30;11.82;73.55
20862;DHT22;10591;52.532;13.348;2022-09-24T03:28:00;11.82;73.34
20862;DHT22;10591;52.532;13.348;2022-09-24T03:30:31;11.80;73.89
20862;DHT22;10591;52.532;13.348;2022-09-24T03:33:19;11.80;73.76
20862;DHT22;10591;52.532;13.348;2022-09-24T03:36:01;11.78;73.83
20862;DHT22;10591;52.532;13.348;2022-09-24T03:38:27;11.77;73.60
20862;DHT22;10591;52.532;13.348;2022-09-24T03:40:58;11.71;74.00
20862;DHT22;10591;52.532;13.348;2022-09-24T03:43:29;11.70;74.31
20862;DHT22;10591;52.532;13.348;2022-09-24T03:45:59;11.71;74.50
20862;DHT22;10591;52.532;13.348;2022-09-24T03:48:31;11.65;74.51
20862;DHT22;10591;52.532;13.348;2022-09-24T03:51:10;11.65;74.61
20862;DHT22;10591;52.532;13.348;2022-09-24T03:53:36;11.68;74.59
20862;DHT22;10591;52.532;13.348;2022-09-24T03:56:07;11.67;74.72
20862;DHT22;10591;52.532;13.348;2022-09-24T03:58:38;11.70;75.30
20862;DHT22;10591;52.532;13.348;2022-09-24T04:01:10;11.67;75.13
20862;DHT22;10591;52.532;13.348;2022-09-24T04:03:41;11.70;75.06
20862;DHT22;10591;52.532;13.348;2022-09-24T04:06:11;11.69;75.14
20862;DHT22;10591;52.532;13.348;2022-09-24T04:08:42;11.70;75.01
20862;DHT22;10591;52.532;13.348;2022-09-24T04:11:13;11.67;75.34
20862;DHT22;10591;52.532;13.348;2022-09-24T04:13:43;11.66;75.11
20862;DHT22;10591;52.532;13.348;2022-09-24T04:16:14;11.60;75.25
20862;DHT22;10591;52.532;13.348;2022-09-24T04:18:44;11.66;75.34
20862;DHT22;10591;52.532;13.348;2022-09-24T04:21:16;11.64;75.36
20862;DHT22;10591;52.532;13.348;2022-09-24T04:23:47;11.66;75.11
20862;DHT22;10591;52.532;13.348;2022-09-24T04:26:17;11.68;75.06
20862;DHT22;10591;52.532;13.348;2022-09-24T04:28:49;11.62;75.34
20862;DHT22;10591;52.532;13.348;2022-09-24T04:31:19;11.64;75.49
20862;DHT22;10591;52.532;13.348;2022-09-24T04:33:50;11.63;75.54
20862;DHT22;10591;52.532;13.348;2022-09-24T04:36:21;11.64;75.49
20862;DHT22;10591;52.532;13.348;2022-09-24T04:38:51;11.58;75.51
20862;DHT22;10591;52.532;13.348;2022-09-24T04:41:21;11.62;75.10
20862;DHT22;10591;52.532;13.348;2022-09-24T04:43:52;11.61;75.61
20862;DHT22;10591;52.532;13.348;2022-09-24T04:46:22;11.61;75.23
20862;DHT22;10591;52.532;13.348;2022-09-24T04:48:53;11.60;75.05
20862;DHT22;10591;52.532;13.348;2022-09-24T04:51:23;11.60;74.86
20862;DHT22;10591;52.532;13.348;2022-09-24T04:53:54;11.60;74.60
20862;DHT22;10591;52.532;13.348;2022-09-24T04:56:24;11.56;74.99
20862;DHT22;10591;52.532;13.348;2022-09-24T04:58:55;11.56;75.11
20862;DHT22;10591;52.532;13.348;2022-09-24T05:01:26;11.57;75.27
20862;DHT22;10591;52.532;13.348;2022-09-24T05:03:56;11.56;75.63
20862;DHT22;10591;52.532;13.348;2022-09-24T05:06:27;11.56;76.14
20862;DHT22;10591;52.532;13.348;2022-09-24T05:08:57;11.56;75.50
20862;DHT22;10591;52.532;13.348;2022-09-24T05:11:28;11.58;75.61
20862;DHT22;10591;52.532;13.348;2022-09-24T05:13:58;11.62;75.48
20862;DHT22;10591;52.532;13.348;2022-09-24T05:16:29;11.64;75.67
20862;DHT22;10591;52.532;13.348;2022-09-24T05:19:00;11.62;76.05
20862;DHT22;10591;52.532;13.348;2022-09-24T05:21:32;11.64;75.85
20862;DHT22;10591;52.532;13.348;2022-09-24T05:24:02;11.59;75.97
20862;DHT22;10591;52.532;13.348;2022-09-24T05:26:33;11.63;75.82
20862;DHT22;10591;52.532;13.348;2022-09-24T05:29:21;11.65;75.93
20862;DHT22;10591;52.532;13.348;2022-09-24T05:31:52;11.72;75.45
20862;DHT22;10591;52.532;13.348;2022-09-24T05:34:22;11.74;74.84
20862;DHT22;10591;52.532;13.348;2022-09-24T05:36:53;11.70;75.15
20862;DHT22;10591;52.532;13.348;2022-09-24T05:39:23;11.76;75.41
20862;DHT22;10591;52.532;13.348;2022-09-24T05:41:56;11.82;75.58
20862;DHT22;10591;52.532;13.348;2022-09-24T05:44:26;11.84;75.69
20862;DHT22;10591;52.532;13.348;2022-09-24T05:46:58;11.90;75.90
20862;DHT22;10591;52.532;13.348;2022-09-24T05:49:29;11.86;75.67
20862;DHT22;10591;52.532;13.348;2022-09-24T05:52:01;11.89;75.13
20862;DHT22;10591;52.532;13.348;2022-09-24T05:54:32;11.89;74.85
20862;DHT22;10591;52.532;13.348;2022-09-24T05:57:02;11.94;75.22
20862;DHT22;10591;52.532;13.348;2022-09-24T05:59:33;11.95;75.24
20862;DHT22;10591;52.532;13.348;2022-09-24T06:02:03;12.01;74.66
20862;DHT22;10591;52.532;13.348;2022-09-24T06:04:33;11.97;74.55
20862;DHT22;10591;52.532;13.348;2022-09-24T06:07:04;11.91;74.45
20862;DHT22;10591;52.532;13.348;2022-09-24T06:09:34;11.94;74.23
20862;DHT22;10591;52.532;13.348;2022-09-24T06:12:07;11.95;74.00
20862;DHT22;10591;52.532;13.348;2022-09-24T06:14:39;11.90;73.57
20862;DHT22;10591;52.532;13.348;2022-09-24T06:17:12;11.90;73.91
20862;DHT22;10591;52.532;13.348;2022-09-24T06:19:42;11.96;73.79
20862;DHT22;10591;52.532;13.348;2022-09-24T06:22:13;12.00;74.34
20862;DHT22;10591;52.532;13.348;2022-09-24T06:24:44;12.00;73.43
20862;DHT22;10591;52.532;13.348;2022-09-24T06:27:14;12.04;73.86
20862;DHT22;10591;52.532;13.348;2022-09-24T06:29:45;12.10;73.93
20862;DHT22;10591;52.532;13.348;2022-09-24T06:32:15;12.16;73.15
20862;DHT22;10591;52.532;13.348;2022-09-24T06:34:47;12.22;72.95
20862;DHT22;10591;52.532;13.348;2022-09-24T06:37:18;12.30;72.49
20862;DHT22;10591;52.532;13.348;2022-09-24T06:39:48;12.29;72.25
20862;DHT22;10591;52.532;13.348;2022-09-24T06:42:20;12.40;72.06
20862;DHT22;10591;52.532;13.348;2022-09-24T06:44:51;12.52;71.72
20862;DHT22;10591;52.532;13.348;2022-09-24T06:47:21;12.58;72.26
20862;DHT22;10591;52.532;13.348;2022-09-24T06:49:52;12.65;72.24
20862;DHT22;10591;52.532;13.348;2022-09-24T06:52:22;12.72;71.75
20862;DHT22;10591;52.532;13.348;2022-09-24T06:54:53;12.83;71.21
20862;DHT22;10591;52.532;13.348;2022-09-24T06:57:24;12.80;71.42
20862;DHT22;10591;52.532;13.348;2022-09-24T06:59:56;12.88;71.73
20862;DHT22;10591;52.532;13.348;2022-09-24T07:02:27;12.88;71.49
20862;DHT22;10591;52.532;13.348;2022-09-24T07:04:59;12.78;71.25
20862;DHT22;10591;52.532;13.348;2022-09-24T07:07:30;12.83;71.72
20862;DHT22;10591;52.532;13.348;2022-09-24T07:10:05;12.78;71.44
20862;DHT22;10591;52.532;13.348;2022-09-24T07:12:36;12.67;71.39
20862;DHT22;10591;52.532;13.348;2022-09-24T07:15:07;12.82;70.99
20862;DHT22;10591;52.532;13.348;2022-09-24T07:17:37;12.81;70.99
20862;DHT22;10591;52.532;13.348;2022-09-24T07:20:08;12.81;70.93
20862;DHT22;10591;52.532;13.348;2022-09-24T07:22:40;12.88;70.71
20862;DHT22;10591;52.532;13.348;2022-09-24T07:25:11;12.71;70.91
20862;DHT22;10591;52.532;13.348;2022-09-24T07:27:42;12.78;70.87
20862;DHT22;10591;52.532;13.348;2022-09-24T07:30:12;12.84;71.27
20862;DHT22;10591;52.532;13.348;2022-09-24T07:32:43;12.85;71.15
20862;DHT22;10591;52.532;13.348;2022-09-24T07:35:13;12.98;71.18
20862;DHT22;10591;52.532;13.348;2022-09-24T07:37:44;13.08;70.90
20862;DHT22;10591;52.532;13.348;2022-09-24T07:40:14;13.12;71.01
20862;DHT22;10591;52.532;13.348;2022-09-24T07:42:48;13.02;70.69
20862;DHT22;10591;52.532;13.348;2022-09-24T07:45:18;13.00;70.84
20862;DHT22;10591;52.532;13.348;2022-09-24T07:48:03;12.90;71.22
20862;DHT22;10591;52.532;13.348;2022-09-24T07:50:37;12.90;71.71
20862;DHT22;10591;52.532;13.348;2022-09-24T07:53:10;12.94;71.52
20862;DHT22;10591;52.532;13.348;2022-09-24T07:55:41;12.95;71.66
20862;DHT22;10591;52.532;13.348;2022-09-24T07:58:12;12.90;71.60
20862;DHT22;10591;52.532;13.348;2022-09-24T08:00:43;12.92;71.12
20862;DHT22;10591;52.532;13.348;2022-09-24T08:03:13;12.94;71.25
20862;DHT22;10591;52.532;13.348;2022-09-24T08:05:44;12.94;70.99
20862;DHT22;10591;52.532;13.348;2022-09-24T08:08:15;12.94;70.64
20862;DHT22;10591;52.532;13.348;2022-09-24T08:10:45;13.07;70.61
20862;DHT22;10591;52.532;13.348;2022-09-24T08:13:16;13.09;70.37
20862;DHT22;10591;52.532;13.348;2022-09-24T08:15:46;13.03;70.00
20862;DHT22;10591;52.532;13.348;2022-09-24T08:18:17;13.14;70.08
20862;DHT22;10591;52.532;13.348;2022-09-24T08:20:47;13.16;70.17
20862;DHT22;10591;52.532;13.348;2022-09-24T08:23:17;13.26;69.78
20862;DHT22;10591;52.532;13.348;2022-09-24T08:25:49;13.32;70.39
20862;DHT22;10591;52.532;13.348;2022-09-24T08:28:19;13.46;70.01
20862;DHT22;10591;52.532;13.348;2022-09-24T08:30:49;13.39;69.10
20862;DHT22;10591;52.532;13.348;2022-09-24T08:33:20;13.40;69.10
20862;DHT22;10591;52.532;13.348;2022-09-24T08:35:50;13.42;69.07
20862;DHT22;10591;52.532;13.348;2022-09-24T08:38:21;13.54;69.53
20862;DHT22;10591;52.532;13.348;2022-09-24T08:43:41;13.72;69.05
20862;DHT22;10591;52.532;13.348;2022-09-24T08:46:25;13.89;69.40
20862;DHT22;10591;52.532;13.348;2022-09-24T08:49:19;14.03;68.09
20862;DHT22;10591;52.532;13.348;2022-09-24T08:51:56;14.04;67.78
20862;DHT22;10591;52.532;13.348;2022-09-24T08:54:26;13.96;67.95
20862;DHT22;10591;52.532;13.348;2022-09-24T08:57:00;14.16;68.71
20862;DHT22;10591;52.532;13.348;2022-09-24T08:59:33;14.28;68.96
20862;DHT22;10591;52.532;13.348;2022-09-24T09:07:41;15.00;67.18
20862;DHT22;10591;52.532;13.348;2022-09-24T09:10:17;15.09;65.76
20862;DHT22;10591;52.532;13.348;2022-09-24T09:12:52;15.16;64.62
20862;DHT22;10591;52.532;13.348;2022-09-24T09:15:34;15.27;64.24
20862;DHT22;10591;52.532;13.348;2022-09-24T09:18:24;15.32;63.73
20862;DHT22;10591;52.532;13.348;2022-09-24T09:21:00;15.60;63.29
20862;DHT22;10591;52.532;13.348;2022-09-24T09:23:47;16.03;62.61
20862;DHT22;10591;52.532;13.348;2022-09-24T09:26:16;15.94;62.74
20862;DHT22;10591;52.532;13.348;2022-09-24T09:28:48;16.01;63.04
20862;DHT22;10591;52.532;13.348;2022-09-24T09:31:42;15.89;63.42
20862;DHT22;10591;52.532;13.348;2022-09-24T09:37:23;15.84;64.04
20862;DHT22;10591;52.532;13.348;2022-09-24T09:42:36;15.88;63.86
20862;DHT22;10591;52.532;13.348;2022-09-24T09:45:34;15.82;62.67
20862;DHT22;10591;52.532;13.348;2022-09-24T09:48:07;16.00;62.78
20862;DHT22;10591;52.532;13.348;2022-09-24T09:50:45;15.92;62.31
20862;DHT22;10591;52.532;13.348;2022-09-24T09:53:25;15.97;61.59
20862;DHT22;10591;52.532;13.348;2022-09-24T09:55:57;15.98;62.86
20862;DHT22;10591;52.532;13.348;2022-09-24T09:58:30;15.91;62.68
20862;DHT22;10591;52.532;13.348;2022-09-24T10:01:06;15.80;63.15
20862;DHT22;10591;52.532;13.348;2022-09-24T10:03:46;15.66;62.81
20862;DHT22;10591;52.532;13.348;2022-09-24T10:06:32;15.68;62.61
20862;DHT22;10591;52.532;13.348;2022-09-24T10:09:14;15.70;63.63
20862;DHT22;10591;52.532;13.348;2022-09-24T10:11:46;15.84;62.50
20862;DHT22;10591;52.532;13.348;2022-09-24T10:14:17;15.94;62.75
20862;DHT22;10591;52.532;13.348;2022-09-24T10:16:53;16.02;62.03
20862;DHT22;10591;52.532;13.348;2022-09-24T10:19:25;16.04;62.73
20862;DHT22;10591;52.532;13.348;2022-09-24T10:21:57;15.92;60.88
20862;DHT22;10591;52.532;13.348;2022-09-24T10:24:29;15.99;61.59
20862;DHT22;10591;52.532;13.348;2022-09-24T10:27:00;16.04;60.81
20862;DHT22;10591;52.532;13.348;2022-09-24T10:29:32;15.96;61.18
20862;DHT22;10591;52.532;13.348;2022-09-24T10:32:23;15.98;61.16
20862;DHT22;10591;52.532;13.348;2022-09-24T10:34:58;16.06;60.87
20862;DHT22;10591;52.532;13.348;2022-09-24T10:37:29;16.16;61.85
20862;DHT22;10591;52.532;13.348;2022-09-24T10:42:41;16.12;60.91
20862;DHT22;10591;52.532;13.348;2022-09-24T10:45:13;16.00;61.01
20862;DHT22;10591;52.532;13.348;2022-09-24T10:47:55;15.84;61.71
20862;DHT22;10591;52.532;13.348;2022-09-24T10:50:33;15.78;61.38
20862;DHT22;10591;52.532;13.348;2022-09-24T11:01:41;15.60;62.22
20862;DHT22;10591;52.532;13.348;2022-09-24T11:04:28;15.64;62.35
20862;DHT22;10591;52.532;13.348;2022-09-24T11:07:24;15.72;62.31
20862;DHT22;10591;52.532;13.348;2022-09-24T11:13:13;15.98;61.27
20862;DHT22;10591;52.532;13.348;2022-09-24T11:24:22;16.58;59.87
20862;DHT22;10591;52.532;13.348;2022-09-24T11:26:57;16.79;59.28
20862;DHT22;10591;52.532;13.348;2022-09-24T11:32:41;16.78;59.52
20862;DHT22;10591;52.532;13.348;2022-09-24T11:35:28;16.92;58.98
20862;DHT22;10591;52.532;13.348;2022-09-24T11:38:05;17.17;58.45
20862;DHT22;10591;52.532;13.348;2022-09-24T11:41:06;17.19;58.22
20862;DHT22;10591;52.532;13.348;2022-09-24T11:52:04;17.04;58.94
20862;DHT22;10591;52.532;13.348;2022-09-24T11:57:32;17.11;58.20
20862;DHT22;10591;52.532;13.348;2022-09-24T12:00:18;17.08;57.86
20862;DHT22;10591;52.532;13.348;2022-09-24T12:02:55;16.97;57.43
20862;DHT22;10591;52.532;13.348;2022-09-24T12:05:31;16.86;58.87
20862;DHT22;10591;52.532;13.348;2022-09-24T12:11:01;16.48;59.45
20862;DHT22;10591;52.532;13.348;2022-09-24T12:13:58;16.53;59.21
20862;DHT22;10591;52.532;13.348;2022-09-24T12:16:30;16.54;60.72
20862;DHT22;10591;52.532;13.348;2022-09-24T12:21:52;16.48;61.47
20862;DHT22;10591;52.532;13.348;2022-09-24T12:24:40;16.43;62.13
20862;DHT22;10591;52.532;13.348;2022-09-24T12:27:21;16.34;63.21
20862;DHT22;10591;52.532;13.348;2022-09-24T12:29:59;16.29;64.32
20862;DHT22;10591;52.532;13.348;2022-09-24T12:43:31;17.01;63.06
20862;DHT22;10591;52.532;13.348;2022-09-24T12:46:02;17.08;63.25
20862;DHT22;10591;52.532;13.348;2022-09-24T12:48:35;17.44;60.21
20862;DHT22;10591;52.532;13.348;2022-09-24T12:51:07;17.68;60.37
20862;DHT22;10591;52.532;13.348;2022-09-24T12:53:40;18.03;58.34
20862;DHT22;10591;52.532;13.348;2022-09-24T12:56:12;17.97;57.98
20862;DHT22;10591;52.532;13.348;2022-09-24T12:58:44;18.21;56.68
20862;DHT22;10591;52.532;13.348;2022-09-24T13:04:05;18.01;57.68
20862;DHT22;10591;52.532;13.348;2022-09-24T13:06:37;17.97;57.40
20862;DHT22;10591;52.532;13.348;2022-09-24T13:15:00;17.68;58.77
20862;DHT22;10591;52.532;13.348;2022-09-24T13:17:22;17.53;59.22
20862;DHT22;10591;52.532;13.348;2022-09-24T13:19:58;17.48;58.17
20862;DHT22;10591;52.532;13.348;2022-09-24T13:22:32;17.53;57.79
20862;DHT22;10591;52.532;13.348;2022-09-24T13:27:42;17.78;56.74
20862;DHT22;10591;52.532;13.348;2022-09-24T13:30:43;17.78;56.43
20862;DHT22;10591;52.532;13.348;2022-09-24T13:35:46;17.88;58.17
20862;DHT22;10591;52.532;13.348;2022-09-24T13:38:36;17.98;57.68
20862;DHT22;10591;52.532;13.348;2022-09-24T13:41:21;17.59;59.88
20862;DHT22;10591;52.532;13.348;2022-09-24T13:43:55;17.54;61.58
20862;DHT22;10591;52.532;13.348;2022-09-24T13:46:25;17.45;61.42
20862;DHT22;10591;52.532;13.348;2022-09-24T13:49:00;17.46;61.48
20862;DHT22;10591;52.532;13.348;2022-09-24T13:51:33;17.45;61.98
20862;DHT22;10591;52.532;13.348;2022-09-24T13:54:10;17.64;60.69
20862;DHT22;10591;52.532;13.348;2022-09-24T13:56:38;17.46;61.36
20862;DHT22;10591;52.532;13.348;2022-09-24T13:59:11;17.48;59.62
20862;DHT22;10591;52.532;13.348;2022-09-24T14:01:42;17.48;59.78
20862;DHT22;10591;52.532;13.348;2022-09-24T14:04:22;17.45;60.81
20862;DHT22;10591;52.532;13.348;2022-09-24T14:06:51;17.56;60.26
20862;DHT22;10591;52.532;13.348;2022-09-24T14:09:25;17.46;60.63
20862;DHT22;10591;52.532;13.348;2022-09-24T14:11:58;17.58;60.85
20862;DHT22;10591;52.532;13.348;2022-09-24T14:14:33;17.58;61.53
20862;DHT22;10591;52.532;13.348;2022-09-24T14:17:07;17.64;61.66
20862;DHT22;10591;52.532;13.348;2022-09-24T14:19:38;17.62;61.91
20862;DHT22;10591;52.532;13.348;2022-09-24T14:22:14;17.44;61.39
20862;DHT22;10591;52.532;13.348;2022-09-24T14:24:57;17.38;60.59
20862;DHT22;10591;52.532;13.348;2022-09-24T14:27:28;17.40;61.94
20862;DHT22;10591;52.532;13.348;2022-09-24T14:30:03;17.36;62.66
20862;DHT22;10591;52.532;13.348;2022-09-24T14:32:36;17.30;62.39
20862;DHT22;10591;52.532;13.348;2022-09-24T14:37:49;17.17;64.05
20862;DHT22;10591;52.532;13.348;2022-09-24T14:40:22;17.17;62.92
20862;DHT22;10591;52.532;13.348;2022-09-24T14:42:55;17.06;63.22
20862;DHT22;10591;52.532;13.348;2022-09-24T14:45:29;17.24;61.65
20862;DHT22;10591;52.532;13.348;2022-09-24T14:48:15;17.14;61.92
20862;DHT22;10591;52.532;13.348;2022-09-24T14:50:38;16.97;62.39
20862;DHT22;10591;52.532;13.348;2022-09-24T14:53:24;16.84;63.01
20862;DHT22;10591;52.532;13.348;2022-09-24T14:55:55;16.62;62.48
20862;DHT22;10591;52.532;13.348;2022-09-24T15:01:05;16.45;64.53
20862;DHT22;10591;52.532;13.348;2022-09-24T15:03:39;16.44;64.81
20862;DHT22;10591;52.532;13.348;2022-09-24T15:06:24;16.33;63.85
20862;DHT22;10591;52.532;13.348;2022-09-24T15:09:31;16.29;64.04
20862;DHT22;10591;52.532;13.348;2022-09-24T15:12:08;16.21;64.63
20862;DHT22;10591;52.532;13.348;2022-09-24T15:14:39;16.12;64.41
20862;DHT22;10591;52.532;13.348;2022-09-24T15:17:21;16.14;64.69
20862;DHT22;10591;52.532;13.348;2022-09-24T15:19:53;16.07;64.57
20862;DHT22;10591;52.532;13.348;2022-09-24T15:22:27;16.00;65.27
20862;DHT22;10591;52.532;13.348;2022-09-24T15:24:58;15.93;65.89
20862;DHT22;10591;52.532;13.348;2022-09-24T15:27:32;15.92;65.26
20862;DHT22;10591;52.532;13.348;2022-09-24T15:30:04;15.95;65.15
20862;DHT22;10591;52.532;13.348;2022-09-24T15:32:36;15.92;66.00
20862;DHT22;10591;52.532;13.348;2022-09-24T15:35:07;15.90;66.02
20862;DHT22;10591;52.532;13.348;2022-09-24T15:37:38;15.88;65.31
20862;DHT22;10591;52.532;13.348;2022-09-24T15:40:21;15.89;66.13
20862;DHT22;10591;52.532;13.348;2022-09-24T15:42:52;15.90;65.99
20862;DHT22;10591;52.532;13.348;2022-09-24T15:45:24;15.82;65.92
20862;DHT22;10591;52.532;13.348;2022-09-24T15:47:54;15.80;66.20
20862;DHT22;10591;52.532;13.348;2022-09-24T15:50:25;15.78;66.31
20862;DHT22;10591;52.532;13.348;2022-09-24T15:53:00;15.76;66.78
20862;DHT22;10591;52.532;13.348;2022-09-24T15:55:53;15.73;67.11
20862;DHT22;10591;52.532;13.348;2022-09-24T15:58:24;15.64;67.49
20862;DHT22;10591;52.532;13.348;2022-09-24T16:00:55;15.60;67.34
20862;DHT22;10591;52.532;13.348;2022-09-24T16:03:30;15.56;67.48
20862;DHT22;10591;52.532;13.348;2022-09-24T16:06:01;15.50;67.96
20862;DHT22;10591;52.532;13.348;2022-09-24T16:08:31;15.49;67.84
20862;DHT22;10591;52.532;13.348;2022-09-24T16:11:02;15.44;68.06
20862;DHT22;10591;52.532;13.348;2022-09-24T16:13:35;15.41;68.25
20862;DHT22;10591;52.532;13.348;2022-09-24T16:16:06;15.35;68.69
20862;DHT22;10591;52.532;13.348;2022-09-24T16:18:37;15.31;68.88
20862;DHT22;10591;52.532;13.348;2022-09-24T16:21:09;15.26;68.94
20862;DHT22;10591;52.532;13.348;2022-09-24T16:23:39;15.22;69.10
20862;DHT22;10591;52.532;13.348;2022-09-24T16:26:09;15.22;68.96
20862;DHT22;10591;52.532;13.348;2022-09-24T16:28:40;15.20;69.70
20862;DHT22;10591;52.532;13.348;2022-09-24T16:31:10;15.14;69.96
20862;DHT22;10591;52.532;13.348;2022-09-24T16:33:41;15.08;71.21
20862;DHT22;10591;52.532;13.348;2022-09-24T16:36:11;15.10;71.69
20862;DHT22;10591;52.532;13.348;2022-09-24T16:38:42;14.99;71.89
20862;DHT22;10591;52.532;13.348;2022-09-24T16:41:13;14.90;72.30
20862;DHT22;10591;52.532;13.348;2022-09-24T16:43:43;14.86;72.78
20862;DHT22;10591;52.532;13.348;2022-09-24T16:46:14;14.87;73.02
20862;DHT22;10591;52.532;13.348;2022-09-24T16:48:48;14.80;73.46
20862;DHT22;10591;52.532;13.348;2022-09-24T16:51:19;14.75;73.95
20862;DHT22;10591;52.532;13.348;2022-09-24T16:53:53;14.71;74.10
20862;DHT22;10591;52.532;13.348;2022-09-24T16:56:24;14.70;74.31
20862;DHT22;10591;52.532;13.348;2022-09-24T16:58:55;14.64;74.59
20862;DHT22;10591;52.532;13.348;2022-09-24T17:01:26;14.62;74.84
20862;DHT22;10591;52.532;13.348;2022-09-24T17:03:57;14.57;75.00
20862;DHT22;10591;52.532;13.348;2022-09-24T17:06:30;14.54;75.25
20862;DHT22;10591;52.532;13.348;2022-09-24T17:09:00;14.55;75.41
20862;DHT22;10591;52.532;13.348;2022-09-24T17:14:54;14.45;75.81
20862;DHT22;10591;52.532;13.348;2022-09-24T17:17:26;14.44;75.70
20862;DHT22;10591;52.532;13.348;2022-09-24T17:19:57;14.42;76.11
20862;DHT22;10591;52.532;13.348;2022-09-24T17:22:28;14.41;76.29
20862;DHT22;10591;52.532;13.348;2022-09-24T17:24:59;14.41;76.34
20862;DHT22;10591;52.532;13.348;2022-09-24T17:27:29;14.39;76.65
20862;DHT22;10591;52.532;13.348;2022-09-24T17:30:01;14.40;76.60
20862;DHT22;10591;52.532;13.348;2022-09-24T17:32:32;14.36;76.70
20862;DHT22;10591;52.532;13.348;2022-09-24T17:35:02;14.36;76.54